sensor_id;sensor_type;location;lat;lon;timestamp;pressure;altitude;pressure_sealevel;temperature;humidity
6413;BME280;3239;48.714;9.472;2023-08-24T00:01:17;98790.91;;;18.19;100.00
6413;BME280;3239;48.714;9.472;2023-08-24T00:03:44;98792.97;;;18.11;100.00
6413;BME280;3239;48.714;9.472;2023-08-24T00:06:13;98802.16;;;18.21;100.00
6413;BME280;3239;48.714;9.472;2023-08-24T00:08:39;98801.97;;;18.26;100.00
6413;BME280;3239;48.714;9.472;2023-08-24T00:11:04;98804.19;;;18.35;100.00
6413;BME280;3239;48.714;9.472;2023-08-24T00:13:31;98808.41;;;18.44;100.00
6413;BME280;3239;48.714;9.472;2023-08-24T00:15:58;98803.75;;;18.46;100.00
6413;BME280;3239;48.714;9.472;2023-08-24T00:18:24;98796.00;;;18.45;100.00
6413;BME280;3239;48.714;9.472;2023-08-24T00:20:50;98788.84;;;18.34;100.00
6413;BME280;3239;48.714;9.472;2023-08-24T00:23:17;98793.66;;;18.26;100.00
6413;BME280;3239;48.714;9.472;2023-08-24T00:25:42;98794.44;;;18.19;100.00
6413;BME280;3239;48.714;9.472;2023-08-24T00:28:08;98796.25;;;18.24;100.00
6413;BME280;3239;48.714;9.472;2023-08-24T00:30:34;98795.16;;;18.12;100.00
6413;BME280;3239;48.714;9.472;2023-08-24T00:33:00;98790.25;;;17.96;100.00
6413;BME280;3239;48.714;9.472;2023-08-24T00:35:26;98801.72;;;18.00;100.00
6413;BME280;3239;48.714;9.472;2023-08-24T00:37:51;98800.94;;;18.07;100.00
6413;BME280;3239;48.714;9.472;2023-08-24T00:40:17;98797.28;;;17.97;100.00
6413;BME280;3239;48.714;9.472;2023-08-24T00:42:45;98785.63;;;17.98;100.00
6413;BME280;3239;48.714;9.472;2023-08-24T00:45:14;98794.09;;;18.08;100.00
6413;BME280;3239;48.714;9.472;2023-08-24T00:47:46;98784.84;;;18.05;100.00
6413;BME280;3239;48.714;9.472;2023-08-24T00:50:14;98786.34;;;17.99;100.00
6413;BME280;3239;48.714;9.472;2023-08-24T00:52:42;98794.13;;;17.93;100.00
6413;BME280;3239;48.714;9.472;2023-08-24T00:55:09;98785.50;;;17.81;100.00
6413;BME280;3239;48.714;9.472;2023-08-24T00:57:37;98791.41;;;17.78;100.00
6413;BME280;3239;48.714;9.472;2023-08-24T01:00:06;98791.78;;;17.74;100.00
6413;BME280;3239;48.714;9.472;2023-08-24T01:02:36;98795.47;;;17.77;100.00
6413;BME280;3239;48.714;9.472;2023-08-24T01:05:01;98797.53;;;17.76;100.00
6413;BME280;3239;48.714;9.472;2023-08-24T01:07:30;98801.91;;;17.87;100.00
6413;BME280;3239;48.714;9.472;2023-08-24T01:09:56;98798.97;;;17.85;100.00
6413;BME280;3239;48.714;9.472;2023-08-24T01:17:50;98805.47;;;17.80;100.00
6413;BME280;3239;48.714;9.472;2023-08-24T01:20:18;98800.66;;;17.73;100.00
6413;BME280;3239;48.714;9.472;2023-08-24T01:25:47;98797.13;;;17.87;100.00
6413;BME280;3239;48.714;9.472;2023-08-24T01:28:15;98796.75;;;17.91;100.00
6413;BME280;3239;48.714;9.472;2023-08-24T01:30:43;98791.63;;;17.72;100.00
6413;BME280;3239;48.714;9.472;2023-08-24T01:33:09;98788.47;;;17.68;100.00
6413;BME280;3239;48.714;9.472;2023-08-24T01:35:37;98780.72;;;17.59;100.00
6413;BME280;3239;48.714;9.472;2023-08-24T01:38:04;98795.72;;;17.56;100.00
6413;BME280;3239;48.714;9.472;2023-08-24T01:40:48;98784.41;;;17.54;100.00
6413;BME280;3239;48.714;9.472;2023-08-24T01:43:20;98790.16;;;17.56;100.00
6413;BME280;3239;48.714;9.472;2023-08-24T01:45:47;98802.16;;;17.74;100.00
6413;BME280;3239;48.714;9.472;2023-08-24T01:48:14;98811.19;;;17.74;100.00
6413;BME280;3239;48.714;9.472;2023-08-24T01:50:42;98802.31;;;17.68;100.00
6413;BME280;3239;48.714;9.472;2023-08-24T01:53:08;98793.84;;;17.59;100.00
6413;BME280;3239;48.714;9.472;2023-08-24T01:55:34;98796.97;;;17.70;100.00
6413;BME280;3239;48.714;9.472;2023-08-24T01:58:00;98796.78;;;17.61;100.00
6413;BME280;3239;48.714;9.472;2023-08-24T02:00:26;98787.19;;;17.47;100.00
6413;BME280;3239;48.714;9.472;2023-08-24T02:02:52;98789.59;;;17.35;100.00
6413;BME280;3239;48.714;9.472;2023-08-24T02:05:17;98791.84;;;17.44;100.00
6413;BME280;3239;48.714;9.472;2023-08-24T02:07:43;98803.25;;;17.56;100.00
6413;BME280;3239;48.714;9.472;2023-08-24T02:10:09;98803.81;;;17.62;100.00
6413;BME280;3239;48.714;9.472;2023-08-24T02:12:35;98800.13;;;17.59;100.00
6413;BME280;3239;48.714;9.472;2023-08-24T02:15:00;98797.72;;;17.56;100.00
6413;BME280;3239;48.714;9.472;2023-08-24T02:17:26;98784.81;;;17.43;100.00
6413;BME280;3239;48.714;9.472;2023-08-24T02:19:52;98789.63;;;17.43;100.00
6413;BME280;3239;48.714;9.472;2023-08-24T02:22:18;98789.06;;;17.37;100.00
6413;BME280;3239;48.714;9.472;2023-08-24T02:24:44;98786.84;;;17.28;100.00
6413;BME280;3239;48.714;9.472;2023-08-24T02:27:09;98794.94;;;17.26;100.00
6413;BME280;3239;48.714;9.472;2023-08-24T02:29:35;98808.06;;;17.33;100.00
6413;BME280;3239;48.714;9.472;2023-08-24T02:32:02;98811.56;;;17.26;100.00
6413;BME280;3239;48.714;9.472;2023-08-24T02:34:28;98813.59;;;17.18;100.00
6413;BME280;3239;48.714;9.472;2023-08-24T02:36:54;98810.84;;;17.18;100.00
6413;BME280;3239;48.714;9.472;2023-08-24T02:39:19;98810.47;;;17.14;100.00
6413;BME280;3239;48.714;9.472;2023-08-24T02:41:45;98814.34;;;17.11;100.00
6413;BME280;3239;48.714;9.472;2023-08-24T02:44:11;98828.19;;;17.18;100.00
6413;BME280;3239;48.714;9.472;2023-08-24T02:46:36;98832.63;;;17.29;100.00
6413;BME280;3239;48.714;9.472;2023-08-24T02:49:02;98839.84;;;17.32;100.00
6413;BME280;3239;48.714;9.472;2023-08-24T02:51:28;98828.94;;;17.26;100.00
6413;BME280;3239;48.714;9.472;2023-08-24T02:53:54;98823.00;;;17.15;100.00
6413;BME280;3239;48.714;9.472;2023-08-24T02:56:19;98818.97;;;17.16;100.00
6413;BME280;3239;48.714;9.472;2023-08-24T02:58:45;98812.84;;;17.17;100.00
6413;BME280;3239;48.714;9.472;2023-08-24T03:01:11;98809.53;;;17.19;100.00
6413;BME280;3239;48.714;9.472;2023-08-24T03:03:37;98816.38;;;17.18;100.00
6413;BME280;3239;48.714;9.472;2023-08-24T03:06:06;98814.16;;;17.16;100.00
6413;BME280;3239;48.714;9.472;2023-08-24T03:08:33;98819.31;;;17.20;100.00
6413;BME280;3239;48.714;9.472;2023-08-24T03:11:00;98829.47;;;17.25;100.00
6413;BME280;3239;48.714;9.472;2023-08-24T03:13:27;98815.06;;;17.19;100.00
6413;BME280;3239;48.714;9.472;2023-08-24T03:15:54;98813.22;;;17.21;100.00
6413;BME280;3239;48.714;9.472;2023-08-24T03:18:20;98835.41;;;17.29;100.00
6413;BME280;3239;48.714;9.472;2023-08-24T03:20:48;98836.31;;;17.24;100.00
6413;BME280;3239;48.714;9.472;2023-08-24T03:23:15;98823.75;;;17.15;100.00
6413;BME280;3239;48.714;9.472;2023-08-24T03:25:42;98823.38;;;17.11;100.00
6413;BME280;3239;48.714;9.472;2023-08-24T03:28:09;98819.53;;;17.22;100.00
6413;BME280;3239;48.714;9.472;2023-08-24T03:30:37;98823.38;;;17.26;100.00
6413;BME280;3239;48.714;9.472;2023-08-24T03:33:04;98825.63;;;17.28;100.00
6413;BME280;3239;48.714;9.472;2023-08-24T03:35:31;98818.97;;;17.16;100.00
6413;BME280;3239;48.714;9.472;2023-08-24T03:37:57;98836.50;;;17.11;100.00
6413;BME280;3239;48.714;9.472;2023-08-24T03:40:23;98814.13;;;17.01;100.00
6413;BME280;3239;48.714;9.472;2023-08-24T03:42:50;98810.66;;;17.01;100.00
6413;BME280;3239;48.714;9.472;2023-08-24T03:45:16;98818.03;;;17.13;100.00
6413;BME280;3239;48.714;9.472;2023-08-24T03:47:42;98824.13;;;17.12;100.00
6413;BME280;3239;48.714;9.472;2023-08-24T03:50:08;98813.97;;;17.14;100.00
6413;BME280;3239;48.714;9.472;2023-08-24T03:52:34;98816.00;;;17.06;100.00
6413;BME280;3239;48.714;9.472;2023-08-24T03:55:00;98808.41;;;16.99;100.00
6413;BME280;3239;48.714;9.472;2023-08-24T03:57:25;98815.06;;;17.11;100.00
6413;BME280;3239;48.714;9.472;2023-08-24T03:59:51;98803.81;;;17.02;100.00
6413;BME280;3239;48.714;9.472;2023-08-24T04:02:17;98794.56;;;16.92;100.00
6413;BME280;3239;48.714;9.472;2023-08-24T04:04:43;98796.78;;;16.86;100.00
6413;BME280;3239;48.714;9.472;2023-08-24T04:07:09;98795.66;;;16.89;100.00
6413;BME280;3239;48.714;9.472;2023-08-24T04:09:35;98799.56;;;17.01;100.00
6413;BME280;3239;48.714;9.472;2023-08-24T04:12:00;98797.91;;;17.13;100.00
6413;BME280;3239;48.714;9.472;2023-08-24T04:14:26;98796.06;;;17.15;100.00
6413;BME280;3239;48.714;9.472;2023-08-24T04:16:52;98786.09;;;17.12;100.00
6413;BME280;3239;48.714;9.472;2023-08-24T04:19:18;98788.31;;;17.21;100.00
6413;BME280;3239;48.714;9.472;2023-08-24T04:21:43;98786.84;;;17.20;100.00
6413;BME280;3239;48.714;9.472;2023-08-24T04:24:09;98783.88;;;17.26;100.00
6413;BME280;3239;48.714;9.472;2023-08-24T04:26:35;98783.53;;;17.22;100.00
6413;BME280;3239;48.714;9.472;2023-08-24T04:29:02;98785.75;;;17.23;100.00
6413;BME280;3239;48.714;9.472;2023-08-24T04:31:28;98776.69;;;17.23;100.00
6413;BME280;3239;48.714;9.472;2023-08-24T04:33:53;98770.94;;;17.28;100.00
6413;BME280;3239;48.714;9.472;2023-08-24T04:36:19;98770.94;;;17.28;100.00
6413;BME280;3239;48.714;9.472;2023-08-24T04:38:45;98767.25;;;17.33;100.00
6413;BME280;3239;48.714;9.472;2023-08-24T04:41:10;98770.00;;;17.33;100.00
6413;BME280;3239;48.714;9.472;2023-08-24T04:43:37;98756.75;;;17.32;100.00
6413;BME280;3239;48.714;9.472;2023-08-24T04:46:03;98753.06;;;17.29;100.00
6413;BME280;3239;48.714;9.472;2023-08-24T04:48:29;98750.47;;;17.24;100.00
6413;BME280;3239;48.714;9.472;2023-08-24T04:51:00;98754.72;;;17.40;100.00
6413;BME280;3239;48.714;9.472;2023-08-24T04:53:27;98750.09;;;17.42;100.00
6413;BME280;3239;48.714;9.472;2023-08-24T04:55:53;98746.78;;;17.44;100.00
6413;BME280;3239;48.714;9.472;2023-08-24T04:58:19;98746.22;;;17.45;100.00
6413;BME280;3239;48.714;9.472;2023-08-24T05:00:45;98745.28;;;17.58;100.00
6413;BME280;3239;48.714;9.472;2023-08-24T05:03:11;98733.81;;;17.61;100.00
6413;BME280;3239;48.714;9.472;2023-08-24T05:05:37;98732.28;;;17.68;100.00
6413;BME280;3239;48.714;9.472;2023-08-24T05:08:05;98731.34;;;17.73;100.00
6413;BME280;3239;48.714;9.472;2023-08-24T05:10:33;98718.22;;;17.81;100.00
6413;BME280;3239;48.714;9.472;2023-08-24T05:12:59;98708.75;;;17.91;100.00
6413;BME280;3239;48.714;9.472;2023-08-24T05:15:25;98689.22;;;17.74;100.00
6413;BME280;3239;48.714;9.472;2023-08-24T05:17:52;98687.50;;;17.86;100.00
6413;BME280;3239;48.714;9.472;2023-08-24T05:20:21;98677.34;;;17.89;100.00
6413;BME280;3239;48.714;9.472;2023-08-24T05:22:47;98667.59;;;17.80;100.00
6413;BME280;3239;48.714;9.472;2023-08-24T05:25:13;98662.22;;;17.82;100.00
6413;BME280;3239;48.714;9.472;2023-08-24T05:27:39;98663.31;;;17.87;100.00
6413;BME280;3239;48.714;9.472;2023-08-24T05:30:06;98661.25;;;17.95;100.00
6413;BME280;3239;48.714;9.472;2023-08-24T05:32:32;98661.78;;;18.01;100.00
6413;BME280;3239;48.714;9.472;2023-08-24T05:34:58;98658.53;;;18.19;100.00
6413;BME280;3239;48.714;9.472;2023-08-24T05:37:24;98656.66;;;18.22;100.00
6413;BME280;3239;48.714;9.472;2023-08-24T05:39:50;98651.06;;;18.29;100.00
6413;BME280;3239;48.714;9.472;2023-08-24T05:42:16;98636.91;;;18.67;100.00
6413;BME280;3239;48.714;9.472;2023-08-24T05:44:41;98609.50;;;18.71;100.00
6413;BME280;3239;48.714;9.472;2023-08-24T05:47:07;98591.06;;;19.00;100.00
6413;BME280;3239;48.714;9.472;2023-08-24T05:49:33;98563.28;;;19.00;100.00
6413;BME280;3239;48.714;9.472;2023-08-24T05:51:59;98550.63;;;19.06;100.00
6413;BME280;3239;48.714;9.472;2023-08-24T05:54:24;98543.81;;;19.24;100.00
6413;BME280;3239;48.714;9.472;2023-08-24T05:56:50;98515.09;;;19.39;100.00
6413;BME280;3239;48.714;9.472;2023-08-24T05:59:16;98503.50;;;19.33;100.00
6413;BME280;3239;48.714;9.472;2023-08-24T06:01:42;98483.56;;;19.27;100.00
6413;BME280;3239;48.714;9.472;2023-08-24T06:04:09;98481.06;;;19.48;100.00
6413;BME280;3239;48.714;9.472;2023-08-24T06:06:35;98458.75;;;19.38;100.00
6413;BME280;3239;48.714;9.472;2023-08-24T06:09:02;98472.41;;;19.44;100.00
6413;BME280;3239;48.714;9.472;2023-08-24T06:11:32;98466.69;;;19.78;100.00
6413;BME280;3239;48.714;9.472;2023-08-24T06:13:58;98442.31;;;19.95;100.00
6413;BME280;3239;48.714;9.472;2023-08-24T06:16:24;98429.75;;;20.04;100.00
6413;BME280;3239;48.714;9.472;2023-08-24T06:18:50;98398.59;;;20.15;100.00
6413;BME280;3239;48.714;9.472;2023-08-24T06:21:16;98388.50;;;20.10;100.00
6413;BME280;3239;48.714;9.472;2023-08-24T06:23:42;98389.97;;;20.30;100.00
6413;BME280;3239;48.714;9.472;2023-08-24T06:26:09;98383.53;;;20.56;100.00
6413;BME280;3239;48.714;9.472;2023-08-24T06:28:35;98381.59;;;20.96;100.00
6413;BME280;3239;48.714;9.472;2023-08-24T06:31:01;98358.97;;;21.11;100.00
6413;BME280;3239;48.714;9.472;2023-08-24T06:33:28;98343.72;;;21.22;100.00
6413;BME280;3239;48.714;9.472;2023-08-24T06:35:59;98327.13;;;21.24;100.00
6413;BME280;3239;48.714;9.472;2023-08-24T06:38:26;98325.16;;;21.36;100.00
6413;BME280;3239;48.714;9.472;2023-08-24T06:40:52;98340.22;;;21.42;100.00
6413;BME280;3239;48.714;9.472;2023-08-24T06:43:18;98322.84;;;21.53;100.00
6413;BME280;3239;48.714;9.472;2023-08-24T06:45:44;98325.94;;;21.57;100.00
6413;BME280;3239;48.714;9.472;2023-08-24T06:48:10;98325.94;;;21.57;100.00
6413;BME280;3239;48.714;9.472;2023-08-24T06:50:36;98326.31;;;21.63;100.00
6413;BME280;3239;48.714;9.472;2023-08-24T06:53:03;98334.38;;;21.69;100.00
6413;BME280;3239;48.714;9.472;2023-08-24T06:55:29;98342.44;;;21.95;100.00
6413;BME280;3239;48.714;9.472;2023-08-24T06:57:55;98337.38;;;22.03;100.00
6413;BME280;3239;48.714;9.472;2023-08-24T07:00:22;98346.28;;;21.90;100.00
6413;BME280;3239;48.714;9.472;2023-08-24T07:02:50;98371.69;;;21.94;100.00
6413;BME280;3239;48.714;9.472;2023-08-24T07:05:16;98373.00;;;21.93;100.00
6413;BME280;3239;48.714;9.472;2023-08-24T07:07:45;98374.28;;;22.02;100.00
6413;BME280;3239;48.714;9.472;2023-08-24T07:10:11;98399.50;;;21.83;100.00
6413;BME280;3239;48.714;9.472;2023-08-24T07:12:37;98412.59;;;22.01;100.00
6413;BME280;3239;48.714;9.472;2023-08-24T07:15:09;98422.59;;;22.25;100.00
6413;BME280;3239;48.714;9.472;2023-08-24T07:17:35;98408.16;;;22.29;100.00
6413;BME280;3239;48.714;9.472;2023-08-24T07:20:01;98411.75;;;22.20;100.00
6413;BME280;3239;48.714;9.472;2023-08-24T07:22:26;98438.44;;;22.02;100.00
6413;BME280;3239;48.714;9.472;2023-08-24T07:24:53;98448.59;;;22.49;100.00
6413;BME280;3239;48.714;9.472;2023-08-24T07:27:19;98423.66;;;22.95;100.00
6413;BME280;3239;48.714;9.472;2023-08-24T07:29:45;98384.91;;;23.01;100.00
6413;BME280;3239;48.714;9.472;2023-08-24T07:32:10;98366.88;;;23.48;100.00
6413;BME280;3239;48.714;9.472;2023-08-24T07:34:36;98327.84;;;24.57;100.00
6413;BME280;3239;48.714;9.472;2023-08-24T07:37:02;98296.66;;;25.15;100.00
6413;BME280;3239;48.714;9.472;2023-08-24T07:39:28;98277.84;;;25.17;100.00
6413;BME280;3239;48.714;9.472;2023-08-24T07:41:54;98267.56;;;25.22;100.00
6413;BME280;3239;48.714;9.472;2023-08-24T07:44:20;98269.13;;;25.11;100.00
6413;BME280;3239;48.714;9.472;2023-08-24T07:46:47;98270.72;;;25.28;100.00
6413;BME280;3239;48.714;9.472;2023-08-24T07:49:13;98253.16;;;25.54;100.00
6413;BME280;3239;48.714;9.472;2023-08-24T07:51:39;98250.50;;;25.85;100.00
6413;BME280;3239;48.714;9.472;2023-08-24T07:54:05;98242.22;;;26.16;100.00
6413;BME280;3239;48.714;9.472;2023-08-24T07:56:33;98228.94;;;26.03;100.00
6413;BME280;3239;48.714;9.472;2023-08-24T07:58:58;98222.13;;;25.93;100.00
6413;BME280;3239;48.714;9.472;2023-08-24T08:01:24;98232.16;;;25.55;100.00
6413;BME280;3239;48.714;9.472;2023-08-24T08:03:50;98238.75;;;25.89;100.00
6413;BME280;3239;48.714;9.472;2023-08-24T08:06:16;98227.72;;;26.51;100.00
6413;BME280;3239;48.714;9.472;2023-08-24T08:08:41;98220.94;;;27.02;100.00
6413;BME280;3239;48.714;9.472;2023-08-24T08:11:07;98204.69;;;27.16;100.00
6413;BME280;3239;48.714;9.472;2023-08-24T08:13:33;98204.91;;;27.53;100.00
6413;BME280;3239;48.714;9.472;2023-08-24T08:16:06;98196.75;;;27.94;100.00
6413;BME280;3239;48.714;9.472;2023-08-24T08:18:33;98196.09;;;28.13;100.00
6413;BME280;3239;48.714;9.472;2023-08-24T08:21:00;98188.28;;;28.47;100.00
6413;BME280;3239;48.714;9.472;2023-08-24T08:23:26;98199.72;;;29.27;100.00
6413;BME280;3239;48.714;9.472;2023-08-24T08:25:51;98193.84;;;29.81;100.00
6413;BME280;3239;48.714;9.472;2023-08-24T08:28:18;98198.09;;;30.25;100.00
6413;BME280;3239;48.714;9.472;2023-08-24T08:30:45;98191.66;;;30.01;100.00
6413;BME280;3239;48.714;9.472;2023-08-24T08:33:11;98190.09;;;30.65;100.00
6413;BME280;3239;48.714;9.472;2023-08-24T08:35:38;98183.13;;;30.44;100.00
6413;BME280;3239;48.714;9.472;2023-08-24T08:38:06;98184.94;;;29.91;100.00
6413;BME280;3239;48.714;9.472;2023-08-24T08:40:37;98186.06;;;30.25;100.00
6413;BME280;3239;48.714;9.472;2023-08-24T08:43:03;98170.91;;;30.85;100.00
6413;BME280;3239;48.714;9.472;2023-08-24T08:45:29;98163.47;;;30.97;100.00
6413;BME280;3239;48.714;9.472;2023-08-24T08:48:00;98158.25;;;31.13;100.00
6413;BME280;3239;48.714;9.472;2023-08-24T08:50:26;98154.75;;;31.40;100.00
6413;BME280;3239;48.714;9.472;2023-08-24T08:52:52;98161.44;;;31.53;100.00
6413;BME280;3239;48.714;9.472;2023-08-24T08:55:19;98158.81;;;31.33;100.00
6413;BME280;3239;48.714;9.472;2023-08-24T08:57:49;98158.22;;;31.66;100.00
6413;BME280;3239;48.714;9.472;2023-08-24T09:00:18;98165.22;;;31.91;100.00
6413;BME280;3239;48.714;9.472;2023-08-24T09:02:45;98159.13;;;32.02;100.00
6413;BME280;3239;48.714;9.472;2023-08-24T09:05:13;98153.34;;;32.28;100.00
6413;BME280;3239;48.714;9.472;2023-08-24T09:07:40;98155.66;;;30.96;100.00
6413;BME280;3239;48.714;9.472;2023-08-24T09:10:07;98154.81;;;31.99;100.00
6413;BME280;3239;48.714;9.472;2023-08-24T09:12:33;98141.47;;;32.69;100.00
6413;BME280;3239;48.714;9.472;2023-08-24T09:14:59;98142.53;;;32.20;100.00
6413;BME280;3239;48.714;9.472;2023-08-24T09:17:25;98145.91;;;32.13;100.00
6413;BME280;3239;48.714;9.472;2023-08-24T09:19:52;98138.97;;;33.22;96.94
6413;BME280;3239;48.714;9.472;2023-08-24T09:22:18;98135.63;;;33.75;94.71
6413;BME280;3239;48.714;9.472;2023-08-24T09:24:44;98131.28;;;34.14;96.13
6413;BME280;3239;48.714;9.472;2023-08-24T09:27:20;98130.41;;;33.58;100.00
6413;BME280;3239;48.714;9.472;2023-08-24T09:29:49;98124.44;;;33.02;100.00
6413;BME280;3239;48.714;9.472;2023-08-24T09:32:22;98117.78;;;34.14;100.00
6413;BME280;3239;48.714;9.472;2023-08-24T09:34:49;98117.50;;;34.42;98.26
6413;BME280;3239;48.714;9.472;2023-08-24T09:37:15;98106.06;;;34.40;100.00
6413;BME280;3239;48.714;9.472;2023-08-24T09:39:41;98106.84;;;33.51;100.00
6413;BME280;3239;48.714;9.472;2023-08-24T09:42:07;98088.09;;;34.79;98.10
6413;BME280;3239;48.714;9.472;2023-08-24T09:44:32;98084.50;;;33.32;100.00
6413;BME280;3239;48.714;9.472;2023-08-24T09:46:58;98070.13;;;34.66;100.00
6413;BME280;3239;48.714;9.472;2023-08-24T09:49:24;98075.84;;;33.67;100.00
6413;BME280;3239;48.714;9.472;2023-08-24T09:51:52;98073.13;;;34.78;100.00
6413;BME280;3239;48.714;9.472;2023-08-24T09:54:21;98073.47;;;34.49;100.00
6413;BME280;3239;48.714;9.472;2023-08-24T09:56:49;98064.09;;;35.82;93.43
6413;BME280;3239;48.714;9.472;2023-08-24T09:59:17;98056.72;;;36.82;83.56
6413;BME280;3239;48.714;9.472;2023-08-24T10:01:50;98053.19;;;35.56;98.49
6413;BME280;3239;48.714;9.472;2023-08-24T10:04:34;98048.09;;;34.69;100.00
6413;BME280;3239;48.714;9.472;2023-08-24T10:07:06;98028.22;;;35.50;92.88
6413;BME280;3239;48.714;9.472;2023-08-24T10:12:14;98009.59;;;35.37;93.82
6413;BME280;3239;48.714;9.472;2023-08-24T10:17:15;98005.19;;;36.34;87.05
6413;BME280;3239;48.714;9.472;2023-08-24T10:19:42;98000.38;;;37.09;86.39
6413;BME280;3239;48.714;9.472;2023-08-24T10:22:08;97993.88;;;35.30;97.33
6413;BME280;3239;48.714;9.472;2023-08-24T10:24:35;97985.34;;;36.92;85.21
6413;BME280;3239;48.714;9.472;2023-08-24T10:27:01;97980.69;;;35.81;88.64
6413;BME280;3239;48.714;9.472;2023-08-24T10:29:27;97967.28;;;36.15;91.98
6413;BME280;3239;48.714;9.472;2023-08-24T10:31:53;97973.75;;;36.24;85.10
6413;BME280;3239;48.714;9.472;2023-08-24T10:34:19;97975.19;;;36.23;89.52
6413;BME280;3239;48.714;9.472;2023-08-24T10:36:47;97957.50;;;36.99;87.14
6413;BME280;3239;48.714;9.472;2023-08-24T10:39:14;97971.69;;;36.47;85.42
6413;BME280;3239;48.714;9.472;2023-08-24T10:41:52;97969.59;;;37.71;77.29
6413;BME280;3239;48.714;9.472;2023-08-24T10:44:24;97964.31;;;35.85;89.59
6413;BME280;3239;48.714;9.472;2023-08-24T10:47:12;97965.34;;;36.64;92.16
6413;BME280;3239;48.714;9.472;2023-08-24T10:49:40;97948.94;;;37.21;86.95
6413;BME280;3239;48.714;9.472;2023-08-24T10:54:50;97939.59;;;36.60;87.47
6413;BME280;3239;48.714;9.472;2023-08-24T10:57:26;97936.06;;;37.00;89.33
6413;BME280;3239;48.714;9.472;2023-08-24T11:00:10;97934.66;;;37.19;84.15
6413;BME280;3239;48.714;9.472;2023-08-24T11:02:49;97921.81;;;36.72;86.04
6413;BME280;3239;48.714;9.472;2023-08-24T11:05:22;97918.22;;;37.19;83.62
6413;BME280;3239;48.714;9.472;2023-08-24T11:10:23;97919.44;;;35.90;88.88
6413;BME280;3239;48.714;9.472;2023-08-24T11:15:30;97900.31;;;36.38;89.47
6413;BME280;3239;48.714;9.472;2023-08-24T11:18:29;97899.50;;;37.80;77.86
6413;BME280;3239;48.714;9.472;2023-08-24T11:20:56;97896.09;;;37.00;84.20
6413;BME280;3239;48.714;9.472;2023-08-24T11:23:23;97888.16;;;37.42;78.97
6413;BME280;3239;48.714;9.472;2023-08-24T11:25:53;97889.88;;;38.42;74.73
6413;BME280;3239;48.714;9.472;2023-08-24T11:28:24;97884.41;;;37.92;77.08
6413;BME280;3239;48.714;9.472;2023-08-24T11:30:51;97881.56;;;38.00;74.98
6413;BME280;3239;48.714;9.472;2023-08-24T11:33:26;97876.44;;;38.18;70.02
6413;BME280;3239;48.714;9.472;2023-08-24T11:35:52;97873.22;;;37.00;79.34
6413;BME280;3239;48.714;9.472;2023-08-24T11:38:18;97868.22;;;36.38;85.65
6413;BME280;3239;48.714;9.472;2023-08-24T11:40:44;97861.69;;;35.99;90.48
6413;BME280;3239;48.714;9.472;2023-08-24T11:43:10;97855.28;;;35.97;84.22
6413;BME280;3239;48.714;9.472;2023-08-24T11:45:36;97855.91;;;35.72;90.61
6413;BME280;3239;48.714;9.472;2023-08-24T11:48:02;97855.75;;;35.43;93.07
6413;BME280;3239;48.714;9.472;2023-08-24T11:50:30;97855.69;;;34.40;96.62
6413;BME280;3239;48.714;9.472;2023-08-24T11:52:56;97848.38;;;35.00;93.93
6413;BME280;3239;48.714;9.472;2023-08-24T11:55:22;97837.09;;;35.20;91.36
6413;BME280;3239;48.714;9.472;2023-08-24T11:57:49;97835.22;;;35.69;87.86
6413;BME280;3239;48.714;9.472;2023-08-24T12:00:15;97834.97;;;35.21;90.36
6413;BME280;3239;48.714;9.472;2023-08-24T12:02:42;97831.63;;;35.60;87.20
6413;BME280;3239;48.714;9.472;2023-08-24T12:05:19;97824.34;;;35.27;90.72
6413;BME280;3239;48.714;9.472;2023-08-24T12:07:45;97828.13;;;35.82;90.32
6413;BME280;3239;48.714;9.472;2023-08-24T12:10:12;97835.31;;;35.97;88.27
6413;BME280;3239;48.714;9.472;2023-08-24T12:12:38;97825.19;;;35.58;83.27
6413;BME280;3239;48.714;9.472;2023-08-24T12:17:24;97819.88;;;34.94;87.63
6413;BME280;3239;48.714;9.472;2023-08-24T12:20:00;97820.84;;;35.39;85.76
6413;BME280;3239;48.714;9.472;2023-08-24T12:22:26;97822.06;;;35.08;79.86
6413;BME280;3239;48.714;9.472;2023-08-24T12:24:52;97814.38;;;35.26;77.99
6413;BME280;3239;48.714;9.472;2023-08-24T12:27:19;97814.50;;;35.58;76.41
6413;BME280;3239;48.714;9.472;2023-08-24T12:29:45;97808.09;;;35.62;78.67
6413;BME280;3239;48.714;9.472;2023-08-24T12:32:11;97806.78;;;35.93;74.04
6413;BME280;3239;48.714;9.472;2023-08-24T12:34:37;97795.34;;;35.89;76.29
6413;BME280;3239;48.714;9.472;2023-08-24T12:37:03;97782.69;;;34.74;80.53
6413;BME280;3239;48.714;9.472;2023-08-24T12:39:29;97773.56;;;34.92;80.36
6413;BME280;3239;48.714;9.472;2023-08-24T12:41:59;97770.72;;;34.90;78.50
6413;BME280;3239;48.714;9.472;2023-08-24T12:44:26;97766.69;;;35.33;75.12
6413;BME280;3239;48.714;9.472;2023-08-24T12:46:51;97754.66;;;35.70;73.62
6413;BME280;3239;48.714;9.472;2023-08-24T12:49:17;97757.59;;;35.96;75.34
6413;BME280;3239;48.714;9.472;2023-08-24T12:51:42;97759.03;;;35.88;75.45
6413;BME280;3239;48.714;9.472;2023-08-24T12:54:08;97742.66;;;36.22;69.34
6413;BME280;3239;48.714;9.472;2023-08-24T12:56:34;97733.25;;;35.53;73.81
6413;BME280;3239;48.714;9.472;2023-08-24T12:59:00;97725.38;;;35.38;71.39
6413;BME280;3239;48.714;9.472;2023-08-24T13:01:26;97721.94;;;35.78;70.98
6413;BME280;3239;48.714;9.472;2023-08-24T13:03:52;97722.63;;;35.72;72.26
6413;BME280;3239;48.714;9.472;2023-08-24T13:06:18;97728.25;;;35.42;74.06
6413;BME280;3239;48.714;9.472;2023-08-24T13:08:43;97727.66;;;35.88;71.03
6413;BME280;3239;48.714;9.472;2023-08-24T13:11:09;97726.22;;;35.78;71.50
6413;BME280;3239;48.714;9.472;2023-08-24T13:13:37;97721.94;;;35.91;68.74
6413;BME280;3239;48.714;9.472;2023-08-24T13:16:02;97709.84;;;35.91;65.87
6413;BME280;3239;48.714;9.472;2023-08-24T13:18:28;97704.13;;;36.01;68.15
6413;BME280;3239;48.714;9.472;2023-08-24T13:20:53;97692.72;;;35.99;65.95
6413;BME280;3239;48.714;9.472;2023-08-24T13:23:19;97693.38;;;35.51;70.28
6413;BME280;3239;48.714;9.472;2023-08-24T13:25:45;97693.41;;;36.17;68.75
6413;BME280;3239;48.714;9.472;2023-08-24T13:28:10;97700.50;;;35.58;68.04
6413;BME280;3239;48.714;9.472;2023-08-24T13:30:36;97701.25;;;36.05;67.87
6413;BME280;3239;48.714;9.472;2023-08-24T13:33:02;97698.44;;;36.29;66.57
6413;BME280;3239;48.714;9.472;2023-08-24T13:35:27;97690.56;;;35.83;66.53
6413;BME280;3239;48.714;9.472;2023-08-24T13:37:53;97691.28;;;36.08;64.03